sensor_id;sensor_type;location;lat;lon;timestamp;pressure;altitude;pressure_sealevel;temperature;humidity
19843;BME280;10082;51.038;6.992;2023-01-25T00:02:07;41386.22;;;-144.33;100.00
19843;BME280;10082;51.038;6.992;2023-01-25T00:04:34;41255.69;;;-144.33;100.00
19843;BME280;10082;51.038;6.992;2023-01-25T00:07:01;41700.69;;;-144.33;100.00
19843;BME280;10082;51.038;6.992;2023-01-25T00:09:28;41973.66;;;-144.33;100.00
19843;BME280;10082;51.038;6.992;2023-01-25T00:11:56;41951.88;;;-144.33;100.00
19843;BME280;10082;51.038;6.992;2023-01-25T00:14:24;42183.31;;;-144.33;100.00
19843;BME280;10082;51.038;6.992;2023-01-25T00:16:52;42307.94;;;-144.33;100.00
19843;BME280;10082;51.038;6.992;2023-01-25T00:19:19;42578.97;;;-144.33;100.00
19843;BME280;10082;51.038;6.992;2023-01-25T00:21:46;43095.34;;;-144.33;100.00
19843;BME280;10082;51.038;6.992;2023-01-25T00:24:14;43152.72;;;-144.33;100.00
19843;BME280;10082;51.038;6.992;2023-01-25T00:26:41;43491.09;;;-144.33;100.00
19843;BME280;10082;51.038;6.992;2023-01-25T00:29:12;43546.50;;;-144.33;100.00
19843;BME280;10082;51.038;6.992;2023-01-25T00:31:53;43740.41;;;-144.33;100.00
19843;BME280;10082;51.038;6.992;2023-01-25T00:34:43;44154.03;;;-144.33;100.00
19843;BME280;10082;51.038;6.992;2023-01-25T00:37:13;44169.88;;;-144.33;100.00
19843;BME280;10082;51.038;6.992;2023-01-25T00:39:45;44514.25;;;-144.33;100.00
19843;BME280;10082;51.038;6.992;2023-01-25T00:42:13;44619.16;;;-144.33;100.00
19843;BME280;10082;51.038;6.992;2023-01-25T00:44:46;44953.69;;;-144.33;100.00
19843;BME280;10082;51.038;6.992;2023-01-25T00:47:14;45013.06;;;-144.33;100.00
19843;BME280;10082;51.038;6.992;2023-01-25T00:49:43;45620.84;;;-144.33;100.00
19843;BME280;10082;51.038;6.992;2023-01-25T00:52:10;45967.31;;;-144.33;100.00
19843;BME280;10082;51.038;6.992;2023-01-25T00:54:37;46369.28;;;-144.33;100.00
19843;BME280;10082;51.038;6.992;2023-01-25T00:57:06;46923.78;;;-144.33;100.00
19843;BME280;10082;51.038;6.992;2023-01-25T00:59:34;47416.97;;;-144.33;100.00
19843;BME280;10082;51.038;6.992;2023-01-25T01:02:03;48142.00;;;-144.33;100.00
19843;BME280;10082;51.038;6.992;2023-01-25T01:04:33;48342.09;;;-144.33;100.00
19843;BME280;10082;51.038;6.992;2023-01-25T01:07:01;49035.59;;;-144.33;100.00
19843;BME280;10082;51.038;6.992;2023-01-25T01:09:28;49780.72;;;-144.33;100.00
19843;BME280;10082;51.038;6.992;2023-01-25T01:11:56;50470.50;;;-144.33;100.00
19843;BME280;10082;51.038;6.992;2023-01-25T01:14:23;51332.91;;;-144.33;100.00
19843;BME280;10082;51.038;6.992;2023-01-25T01:16:50;52177.63;;;-144.33;100.00
19843;BME280;10082;51.038;6.992;2023-01-25T01:19:19;52976.91;;;-144.33;100.00
19843;BME280;10082;51.038;6.992;2023-01-25T01:21:47;53599.78;;;-144.33;100.00
19843;BME280;10082;51.038;6.992;2023-01-25T01:24:14;54131.50;;;-144.33;100.00
19843;BME280;10082;51.038;6.992;2023-01-25T01:26:42;55052.25;;;-144.33;100.00
19843;BME280;10082;51.038;6.992;2023-01-25T01:29:09;55685.38;;;-144.33;100.00
19843;BME280;10082;51.038;6.992;2023-01-25T01:31:36;56362.28;;;-144.33;100.00
19843;BME280;10082;51.038;6.992;2023-01-25T01:34:14;56878.47;;;-144.33;100.00
19843;BME280;10082;51.038;6.992;2023-01-25T01:36:43;57541.69;;;-144.33;100.00
19843;BME280;10082;51.038;6.992;2023-01-25T01:39:10;58115.66;;;-144.33;100.00
19843;BME280;10082;51.038;6.992;2023-01-25T01:41:37;58564.53;;;-144.33;100.00
19843;BME280;10082;51.038;6.992;2023-01-25T01:44:14;59160.47;;;-144.33;100.00
19843;BME280;10082;51.038;6.992;2023-01-25T01:46:45;59738.63;;;-144.33;100.00
19843;BME280;10082;51.038;6.992;2023-01-25T01:49:17;60517.59;;;-144.33;100.00
19843;BME280;10082;51.038;6.992;2023-01-25T01:51:48;61080.03;;;-144.33;100.00
19843;BME280;10082;51.038;6.992;2023-01-25T01:54:24;62062.03;;;-144.33;100.00
19843;BME280;10082;51.038;6.992;2023-01-25T01:56:56;63082.06;;;-144.33;100.00
19843;BME280;10082;51.038;6.992;2023-01-25T01:59:29;63780.13;;;-144.33;100.00
19843;BME280;10082;51.038;6.992;2023-01-25T02:01:57;64536.00;;;-144.33;100.00
19843;BME280;10082;51.038;6.992;2023-01-25T02:04:26;65224.38;;;-144.33;100.00
19843;BME280;10082;51.038;6.992;2023-01-25T02:07:00;65825.28;;;-144.33;100.00
19843;BME280;10082;51.038;6.992;2023-01-25T02:09:30;66488.00;;;-144.33;100.00
19843;BME280;10082;51.038;6.992;2023-01-25T02:11:58;67445.47;;;-144.33;100.00
19843;BME280;10082;51.038;6.992;2023-01-25T02:14:28;68180.13;;;-144.33;100.00
19843;BME280;10082;51.038;6.992;2023-01-25T02:16:56;69283.38;;;-144.33;100.00
19843;BME280;10082;51.038;6.992;2023-01-25T02:19:36;70066.19;;;-144.33;100.00
19843;BME280;10082;51.038;6.992;2023-01-25T02:22:08;68158.22;;;-144.33;100.00
19843;BME280;10082;51.038;6.992;2023-01-25T02:24:39;68763.56;;;-144.33;100.00
19843;BME280;10082;51.038;6.992;2023-01-25T02:27:10;69924.75;;;-144.33;100.00
19843;BME280;10082;51.038;6.992;2023-01-25T02:29:39;70715.66;;;-144.33;100.00
19843;BME280;10082;51.038;6.992;2023-01-25T02:32:07;72106.59;;;-144.33;100.00
19843;BME280;10082;51.038;6.992;2023-01-25T02:34:34;72933.84;;;-144.33;100.00
19843;BME280;10082;51.038;6.992;2023-01-25T02:37:02;73721.34;;;-144.33;100.00
19843;BME280;10082;51.038;6.992;2023-01-25T02:39:29;75059.50;;;-144.33;100.00
19843;BME280;10082;51.038;6.992;2023-01-25T02:41:56;75865.38;;;-144.33;100.00
19843;BME280;10082;51.038;6.992;2023-01-25T02:44:29;76689.41;;;-144.33;100.00
19843;BME280;10082;51.038;6.992;2023-01-25T02:46:57;77828.94;;;-144.33;100.00
19843;BME280;10082;51.038;6.992;2023-01-25T02:49:24;78841.00;;;-144.33;100.00
19843;BME280;10082;51.038;6.992;2023-01-25T02:51:53;79983.16;;;-144.33;100.00
19843;BME280;10082;51.038;6.992;2023-01-25T02:54:23;80774.03;;;-144.33;100.00
19843;BME280;10082;51.038;6.992;2023-01-25T02:56:52;81439.25;;;-144.33;100.00
19843;BME280;10082;51.038;6.992;2023-01-25T02:59:21;82086.56;;;-144.33;100.00
19843;BME280;10082;51.038;6.992;2023-01-25T03:01:53;82777.97;;;-144.33;100.00
19843;BME280;10082;51.038;6.992;2023-01-25T03:04:20;83827.28;;;-144.33;100.00
19843;BME280;10082;51.038;6.992;2023-01-25T03:06:47;84528.97;;;-144.33;100.00
19843;BME280;10082;51.038;6.992;2023-01-25T03:09:15;85644.72;;;-144.33;100.00
19843;BME280;10082;51.038;6.992;2023-01-25T03:11:45;86756.78;;;-144.33;100.00
19843;BME280;10082;51.038;6.992;2023-01-25T03:14:12;88179.31;;;-144.33;100.00
19843;BME280;10082;51.038;6.992;2023-01-25T03:16:39;88933.81;;;-144.33;100.00
19843;BME280;10082;51.038;6.992;2023-01-25T03:19:08;89924.66;;;-144.33;100.00
19843;BME280;10082;51.038;6.992;2023-01-25T03:21:39;90955.81;;;-144.33;100.00
19843;BME280;10082;51.038;6.992;2023-01-25T03:24:08;91899.09;;;-144.33;100.00
19843;BME280;10082;51.038;6.992;2023-01-25T03:26:42;92770.47;;;-144.33;100.00
19843;BME280;10082;51.038;6.992;2023-01-25T03:29:38;93984.69;;;-144.33;100.00
19843;BME280;10082;51.038;6.992;2023-01-25T03:32:10;94948.75;;;-144.33;100.00
19843;BME280;10082;51.038;6.992;2023-01-25T03:34:38;95919.00;;;-144.33;100.00
19843;BME280;10082;51.038;6.992;2023-01-25T03:37:06;96859.44;;;-144.33;100.00
19843;BME280;10082;51.038;6.992;2023-01-25T03:39:34;97818.16;;;-144.33;100.00
19843;BME280;10082;51.038;6.992;2023-01-25T03:42:02;98444.03;;;-144.33;100.00
19843;BME280;10082;51.038;6.992;2023-01-25T03:44:30;99539.56;;;-144.33;100.00
19843;BME280;10082;51.038;6.992;2023-01-25T03:46:57;100647.44;;;-144.33;100.00
19843;BME280;10082;51.038;6.992;2023-01-25T03:49:24;101488.56;;;-144.33;100.00
19843;BME280;10082;51.038;6.992;2023-01-25T03:51:53;102755.63;;;-144.33;100.00
19843;BME280;10082;51.038;6.992;2023-01-25T03:54:28;103776.00;;;-144.33;100.00
19843;BME280;10082;51.038;6.992;2023-01-25T03:56:55;105389.41;;;-144.33;100.00
19843;BME280;10082;51.038;6.992;2023-01-25T03:59:24;106042.59;;;-144.33;100.00
19843;BME280;10082;51.038;6.992;2023-01-25T04:01:53;106973.31;;;-144.33;100.00
19843;BME280;10082;51.038;6.992;2023-01-25T04:04:20;108163.66;;;-144.33;100.00
19843;BME280;10082;51.038;6.992;2023-01-25T04:06:48;108907.78;;;-144.33;100.00
19843;BME280;10082;51.038;6.992;2023-01-25T04:09:16;109551.47;;;-144.33;100.00
19843;BME280;10082;51.038;6.992;2023-01-25T04:11:48;110621.84;;;-144.33;100.00
19843;BME280;10082;51.038;6.992;2023-01-25T04:14:16;111267.81;;;-144.33;100.00
19843;BME280;10082;51.038;6.992;2023-01-25T04:16:53;111728.72;;;-144.33;100.00
19843;BME280;10082;51.038;6.992;2023-01-25T04:19:38;112002.47;;;-144.33;100.00
19843;BME280;10082;51.038;6.992;2023-01-25T04:22:10;112171.53;;;-144.33;100.00
19843;BME280;10082;51.038;6.992;2023-01-25T04:24:39;112171.53;;;-144.33;100.00
19843;BME280;10082;51.038;6.992;2023-01-25T04:27:06;112171.53;;;-144.33;100.00
19843;BME280;10082;51.038;6.992;2023-01-25T04:29:41;112171.53;;;-144.33;100.00
19843;BME280;10082;51.038;6.992;2023-01-25T04:32:13;112171.53;;;-144.33;100.00
19843;BME280;10082;51.038;6.992;2023-01-25T04:34:41;112171.53;;;-144.33;100.00
19843;BME280;10082;51.038;6.992;2023-01-25T04:37:13;112171.53;;;-144.33;100.00
19843;BME280;10082;51.038;6.992;2023-01-25T04:39:54;112171.53;;;-144.33;100.00
19843;BME280;10082;51.038;6.992;2023-01-25T04:42:22;112171.53;;;-144.33;100.00
19843;BME280;10082;51.038;6.992;2023-01-25T04:44:52;112171.53;;;-144.33;100.00
19843;BME280;10082;51.038;6.992;2023-01-25T04:47:19;112171.53;;;-144.33;100.00
19843;BME280;10082;51.038;6.992;2023-01-25T04:49:46;112171.53;;;-144.33;100.00
19843;BME280;10082;51.038;6.992;2023-01-25T04:52:16;112171.53;;;-144.33;100.00
19843;BME280;10082;51.038;6.992;2023-01-25T04:54:46;112171.53;;;-144.33;100.00
19843;BME280;10082;51.038;6.992;2023-01-25T04:57:16;112171.53;;;-144.33;100.00
19843;BME280;10082;51.038;6.992;2023-01-25T04:59:48;112171.53;;;-144.33;100.00
19843;BME280;10082;51.038;6.992;2023-01-25T05:02:15;112171.53;;;-144.33;100.00
19843;BME280;10082;51.038;6.992;2023-01-25T05:04:42;112171.53;;;-144.33;100.00
19843;BME280;10082;51.038;6.992;2023-01-25T05:07:09;112171.53;;;-144.33;100.00
19843;BME280;10082;51.038;6.992;2023-01-25T05:09:37;112171.53;;;-144.33;100.00
19843;BME280;10082;51.038;6.992;2023-01-25T05:12:04;112171.53;;;-144.33;100.00
19843;BME280;10082;51.038;6.992;2023-01-25T05:14:49;112171.53;;;-144.33;100.00
19843;BME280;10082;51.038;6.992;2023-01-25T05:17:16;112171.53;;;-144.33;100.00
19843;BME280;10082;51.038;6.992;2023-01-25T05:19:43;112171.53;;;-144.33;100.00
19843;BME280;10082;51.038;6.992;2023-01-25T05:22:14;112171.53;;;-144.33;100.00
19843;BME280;10082;51.038;6.992;2023-01-25T05:24:47;112171.53;;;-144.33;100.00
19843;BME280;10082;51.038;6.992;2023-01-25T05:27:17;112171.53;;;-144.33;100.00
19843;BME280;10082;51.038;6.992;2023-01-25T05:29:54;112171.53;;;-144.33;100.00
19843;BME280;10082;51.038;6.992;2023-01-25T05:32:43;112171.53;;;-144.33;100.00
19843;BME280;10082;51.038;6.992;2023-01-25T05:35:11;112171.53;;;-144.33;100.00
19843;BME280;10082;51.038;6.992;2023-01-25T05:37:38;112171.53;;;-144.33;100.00
19843;BME280;10082;51.038;6.992;2023-01-25T05:40:10;112171.53;;;-144.33;100.00
19843;BME280;10082;51.038;6.992;2023-01-25T05:42:37;112171.53;;;-144.33;100.00
19843;BME280;10082;51.038;6.992;2023-01-25T05:45:12;112171.53;;;-144.33;100.00
19843;BME280;10082;51.038;6.992;2023-01-25T05:47:40;112171.53;;;-144.33;100.00
19843;BME280;10082;51.038;6.992;2023-01-25T05:50:09;112171.53;;;-144.33;100.00
19843;BME280;10082;51.038;6.992;2023-01-25T05:52:49;112171.53;;;-144.33;100.00
19843;BME280;10082;51.038;6.992;2023-01-25T05:55:17;112171.53;;;-144.33;100.00
19843;BME280;10082;51.038;6.992;2023-01-25T05:57:43;112171.53;;;-144.33;100.00
19843;BME280;10082;51.038;6.992;2023-01-25T06:00:13;112171.53;;;-144.33;100.00
19843;BME280;10082;51.038;6.992;2023-01-25T06:02:40;112171.53;;;-144.33;100.00
19843;BME280;10082;51.038;6.992;2023-01-25T06:05:13;112171.53;;;-144.33;100.00
19843;BME280;10082;51.038;6.992;2023-01-25T06:07:40;112171.53;;;-144.33;100.00
19843;BME280;10082;51.038;6.992;2023-01-25T06:10:08;112171.53;;;-144.33;100.00
19843;BME280;10082;51.038;6.992;2023-01-25T06:12:35;112171.53;;;-144.33;100.00
19843;BME280;10082;51.038;6.992;2023-01-25T06:15:04;112171.53;;;-144.33;100.00
19843;BME280;10082;51.038;6.992;2023-01-25T06:17:33;112171.53;;;-144.33;100.00
19843;BME280;10082;51.038;6.992;2023-01-25T06:20:23;112171.53;;;-144.33;100.00
19843;BME280;10082;51.038;6.992;2023-01-25T06:23:03;112171.53;;;-144.33;100.00
19843;BME280;10082;51.038;6.992;2023-01-25T06:25:30;112171.53;;;-144.33;100.00
19843;BME280;10082;51.038;6.992;2023-01-25T06:27:58;112171.53;;;-144.33;100.00
19843;BME280;10082;51.038;6.992;2023-01-25T06:30:25;112171.53;;;-144.33;100.00
19843;BME280;10082;51.038;6.992;2023-01-25T06:32:56;112171.53;;;-144.33;100.00
19843;BME280;10082;51.038;6.992;2023-01-25T06:35:24;112171.53;;;-144.33;100.00
19843;BME280;10082;51.038;6.992;2023-01-25T06:38:00;112171.53;;;-144.33;100.00
19843;BME280;10082;51.038;6.992;2023-01-25T06:40:27;112171.53;;;-144.33;100.00
19843;BME280;10082;51.038;6.992;2023-01-25T06:42:55;112171.53;;;-144.33;100.00
19843;BME280;10082;51.038;6.992;2023-01-25T06:45:21;112171.53;;;-144.33;100.00
19843;BME280;10082;51.038;6.992;2023-01-25T06:47:48;112171.53;;;-144.33;100.00
19843;BME280;10082;51.038;6.992;2023-01-25T06:50:18;112171.53;;;-144.33;100.00
19843;BME280;10082;51.038;6.992;2023-01-25T06:52:50;112171.53;;;-144.33;100.00
19843;BME280;10082;51.038;6.992;2023-01-25T06:55:17;112171.53;;;-144.33;100.00
19843;BME280;10082;51.038;6.992;2023-01-25T06:57:45;112171.53;;;-144.33;100.00
19843;BME280;10082;51.038;6.992;2023-01-25T07:00:12;112171.53;;;-144.33;100.00
19843;BME280;10082;51.038;6.992;2023-01-25T07:02:40;112171.53;;;-144.33;100.00
19843;BME280;10082;51.038;6.992;2023-01-25T07:05:07;112171.53;;;-144.33;100.00
19843;BME280;10082;51.038;6.992;2023-01-25T07:07:35;112171.53;;;-144.33;100.00
19843;BME280;10082;51.038;6.992;2023-01-25T07:10:03;112171.53;;;-144.33;100.00
19843;BME280;10082;51.038;6.992;2023-01-25T07:12:30;112171.53;;;-144.33;100.00
19843;BME280;10082;51.038;6.992;2023-01-25T07:14:58;112171.53;;;-144.33;100.00
19843;BME280;10082;51.038;6.992;2023-01-25T07:17:25;112171.53;;;-144.33;100.00
19843;BME280;10082;51.038;6.992;2023-01-25T07:19:52;112171.53;;;-144.33;100.00
19843;BME280;10082;51.038;6.992;2023-01-25T07:22:19;112171.53;;;-144.33;100.00
19843;BME280;10082;51.038;6.992;2023-01-25T07:24:48;112171.53;;;-144.33;100.00
19843;BME280;10082;51.038;6.992;2023-01-25T07:27:17;112171.53;;;-144.33;100.00
19843;BME280;10082;51.038;6.992;2023-01-25T07:29:45;112171.53;;;-144.33;100.00
19843;BME280;10082;51.038;6.992;2023-01-25T07:32:12;112171.53;;;-144.33;100.00
19843;BME280;10082;51.038;6.992;2023-01-25T07:34:39;112171.53;;;-144.33;100.00
19843;BME280;10082;51.038;6.992;2023-01-25T07:37:06;112171.53;;;-144.33;100.00
19843;BME280;10082;51.038;6.992;2023-01-25T07:39:34;112171.53;;;-144.33;100.00
19843;BME280;10082;51.038;6.992;2023-01-25T07:42:03;112171.53;;;-144.33;100.00
19843;BME280;10082;51.038;6.992;2023-01-25T07:44:31;112171.53;;;-144.33;100.00
19843;BME280;10082;51.038;6.992;2023-01-25T07:47:09;112171.53;;;-144.33;100.00
19843;BME280;10082;51.038;6.992;2023-01-25T07:49:36;112171.53;;;-144.33;100.00
19843;BME280;10082;51.038;6.992;2023-01-25T07:52:04;112171.53;;;-144.33;100.00
19843;BME280;10082;51.038;6.992;2023-01-25T07:54:31;112171.53;;;-144.33;100.00
19843;BME280;10082;51.038;6.992;2023-01-25T07:56:58;112171.53;;;-144.33;100.00
19843;BME280;10082;51.038;6.992;2023-01-25T07:59:27;112171.53;;;-144.33;100.00
19843;BME280;10082;51.038;6.992;2023-01-25T08:01:55;112171.53;;;-144.33;100.00
19843;BME280;10082;51.038;6.992;2023-01-25T08:04:22;112171.53;;;-144.33;100.00
19843;BME280;10082;51.038;6.992;2023-01-25T08:06:49;112171.53;;;-144.33;100.00
19843;BME280;10082;51.038;6.992;2023-01-25T08:09:17;112171.53;;;-144.33;100.00
19843;BME280;10082;51.038;6.992;2023-01-25T08:11:45;112171.53;;;-144.33;100.00
19843;BME280;10082;51.038;6.992;2023-01-25T08:14:14;112171.53;;;-144.33;100.00
19843;BME280;10082;51.038;6.992;2023-01-25T08:16:42;112171.53;;;-144.33;100.00
19843;BME280;10082;51.038;6.992;2023-01-25T08:19:09;112171.53;;;-144.33;100.00
19843;BME280;10082;51.038;6.992;2023-01-25T08:21:37;112171.53;;;-144.33;100.00
19843;BME280;10082;51.038;6.992;2023-01-25T08:24:06;112171.53;;;-144.33;100.00
19843;BME280;10082;51.038;6.992;2023-01-25T08:26:34;112171.53;;;-144.33;100.00
19843;BME280;10082;51.038;6.992;2023-01-25T08:29:02;112171.53;;;-144.33;100.00
19843;BME280;10082;51.038;6.992;2023-01-25T08:31:31;112171.53;;;-144.33;100.00
19843;BME280;10082;51.038;6.992;2023-01-25T08:34:04;112171.53;;;-144.33;100.00
19843;BME280;10082;51.038;6.992;2023-01-25T08:36:31;112171.53;;;-144.33;100.00
19843;BME280;10082;51.038;6.992;2023-01-25T08:39:00;112171.53;;;-144.33;100.00
19843;BME280;10082;51.038;6.992;2023-01-25T08:41:30;112171.53;;;-144.33;100.00
19843;BME280;10082;51.038;6.992;2023-01-25T08:43:57;112171.53;;;-144.33;100.00
19843;BME280;10082;51.038;6.992;2023-01-25T08:46:27;112171.53;;;-144.33;100.00
19843;BME280;10082;51.038;6.992;2023-01-25T08:48:55;112171.53;;;-144.33;100.00
19843;BME280;10082;51.038;6.992;2023-01-25T08:51:24;112171.53;;;-144.33;100.00
19843;BME280;10082;51.038;6.992;2023-01-25T08:53:51;112171.53;;;-144.33;100.00
19843;BME280;10082;51.038;6.992;2023-01-25T08:56:19;112171.53;;;-144.33;100.00
19843;BME280;10082;51.038;6.992;2023-01-25T08:58:48;112171.53;;;-144.33;100.00
19843;BME280;10082;51.038;6.992;2023-01-25T09:01:16;112171.53;;;-144.33;100.00
19843;BME280;10082;51.038;6.992;2023-01-25T09:03:45;112171.53;;;-144.33;100.00
19843;BME280;10082;51.038;6.992;2023-01-25T09:06:12;112171.53;;;-144.33;100.00
19843;BME280;10082;51.038;6.992;2023-01-25T09:08:41;112171.53;;;-144.33;100.00
19843;BME280;10082;51.038;6.992;2023-01-25T09:11:09;112171.53;;;-144.33;100.00
19843;BME280;10082;51.038;6.992;2023-01-25T09:13:37;112171.53;;;-144.33;100.00
19843;BME280;10082;51.038;6.992;2023-01-25T09:16:10;112171.53;;;-144.33;100.00
19843;BME280;10082;51.038;6.992;2023-01-25T09:18:39;112171.53;;;-144.33;100.00
19843;BME280;10082;51.038;6.992;2023-01-25T09:21:08;112171.53;;;-144.33;100.00
19843;BME280;10082;51.038;6.992;2023-01-25T09:23:36;112171.53;;;-144.33;100.00
19843;BME280;10082;51.038;6.992;2023-01-25T09:26:05;112171.53;;;-144.33;100.00
19843;BME280;10082;51.038;6.992;2023-01-25T09:28:32;112171.53;;;-144.33;100.00
19843;BME280;10082;51.038;6.992;2023-01-25T09:31:01;112171.53;;;-144.33;100.00
19843;BME280;10082;51.038;6.992;2023-01-25T09:37:10;112171.53;;;-144.33;100.00
19843;BME280;10082;51.038;6.992;2023-01-25T09:39:37;112171.53;;;-144.33;100.00
19843;BME280;10082;51.038;6.992;2023-01-25T09:42:20;112171.53;;;-144.33;100.00
19843;BME280;10082;51.038;6.992;2023-01-25T09:45:20;112171.53;;;-144.33;100.00
19843;BME280;10082;51.038;6.992;2023-01-25T09:47:53;112171.53;;;-144.33;100.00
19843;BME280;10082;51.038;6.992;2023-01-25T09:50:35;112171.53;;;-144.33;100.00
19843;BME280;10082;51.038;6.992;2023-01-25T09:53:18;112171.53;;;-144.33;100.00
19843;BME280;10082;51.038;6.992;2023-01-25T09:55:50;112171.53;;;-144.33;100.00
19843;BME280;10082;51.038;6.992;2023-01-25T09:58:23;112171.53;;;-144.33;100.00
19843;BME280;10082;51.038;6.992;2023-01-25T10:00:56;112171.53;;;-144.33;100.00
19843;BME280;10082;51.038;6.992;2023-01-25T10:03:26;112171.53;;;-144.33;100.00
19843;BME280;10082;51.038;6.992;2023-01-25T10:05:59;112171.53;;;-144.33;100.00
19843;BME280;10082;51.038;6.992;2023-01-25T10:08:31;112171.53;;;-144.33;100.00
19843;BME280;10082;51.038;6.992;2023-01-25T10:11:03;112171.53;;;-144.33;100.00
19843;BME280;10082;51.038;6.992;2023-01-25T10:13:33;112171.53;;;-144.33;100.00
19843;BME280;10082;51.038;6.992;2023-01-25T10:16:03;112171.53;;;-144.33;100.00
19843;BME280;10082;51.038;6.992;2023-01-25T10:18:36;112171.53;;;-144.33;100.00
19843;BME280;10082;51.038;6.992;2023-01-25T10:21:08;112171.53;;;-144.33;100.00
19843;BME280;10082;51.038;6.992;2023-01-25T10:24:01;112171.53;;;-144.33;100.00
19843;BME280;10082;51.038;6.992;2023-01-25T10:26:34;112171.53;;;-144.33;100.00
19843;BME280;10082;51.038;6.992;2023-01-25T10:29:09;112171.53;;;-144.33;100.00
19843;BME280;10082;51.038;6.992;2023-01-25T10:31:43;112171.53;;;-144.33;100.00
19843;BME280;10082;51.038;6.992;2023-01-25T10:34:17;112171.53;;;-144.33;100.00
19843;BME280;10082;51.038;6.992;2023-01-25T10:36:47;112171.53;;;-144.33;100.00
19843;BME280;10082;51.038;6.992;2023-01-25T10:39:18;112171.53;;;-144.33;100.00
19843;BME280;10082;51.038;6.992;2023-01-25T10:41:49;112171.53;;;-144.33;100.00
19843;BME280;10082;51.038;6.992;2023-01-25T10:44:18;112171.53;;;-144.33;100.00
19843;BME280;10082;51.038;6.992;2023-01-25T10:46:54;112171.53;;;-144.33;100.00
19843;BME280;10082;51.038;6.992;2023-01-25T10:49:23;112171.53;;;-144.33;100.00
19843;BME280;10082;51.038;6.992;2023-01-25T10:51:53;112171.53;;;-144.33;100.00
19843;BME280;10082;51.038;6.992;2023-01-25T10:54:21;112171.53;;;-144.33;100.00
19843;BME280;10082;51.038;6.992;2023-01-25T10:56:49;112171.53;;;-144.33;100.00
19843;BME280;10082;51.038;6.992;2023-01-25T10:59:23;112171.53;;;-144.33;100.00
19843;BME280;10082;51.038;6.992;2023-01-25T11:01:51;112171.53;;;-144.33;100.00
19843;BME280;10082;51.038;6.992;2023-01-25T11:04:26;112171.53;;;-144.33;100.00
19843;BME280;10082;51.038;6.992;2023-01-25T11:06:57;112171.53;;;-144.33;100.00
19843;BME280;10082;51.038;6.992;2023-01-25T11:09:32;112171.53;;;-144.33;100.00
19843;BME280;10082;51.038;6.992;2023-01-25T11:12:01;112171.53;;;-144.33;100.00
19843;BME280;10082;51.038;6.992;2023-01-25T11:14:32;112171.53;;;-144.33;100.00
19843;BME280;10082;51.038;6.992;2023-01-25T11:17:01;112171.53;;;-144.33;100.00
19843;BME280;10082;51.038;6.992;2023-01-25T11:19:32;112171.53;;;-144.33;100.00
19843;BME280;10082;51.038;6.992;2023-01-25T11:22:01;112171.53;;;-144.33;100.00
19843;BME280;10082;51.038;6.992;2023-01-25T11:24:30;112171.53;;;-144.33;100.00
19843;BME280;10082;51.038;6.992;2023-01-25T11:27:17;112171.53;;;-144.33;100.00
19843;BME280;10082;51.038;6.992;2023-01-25T11:30:06;112171.53;;;-144.33;100.00
19843;BME280;10082;51.038;6.992;2023-01-25T11:32:33;112171.53;;;-144.33;100.00
19843;BME280;10082;51.038;6.992;2023-01-25T11:35:01;112171.53;;;-144.33;100.00
19843;BME280;10082;51.038;6.992;2023-01-25T11:37:37;112171.53;;;-144.33;100.00
19843;BME280;10082;51.038;6.992;2023-01-25T11:40:14;112171.53;;;-144.33;100.00
19843;BME280;10082;51.038;6.992;2023-01-25T11:42:51;112171.53;;;-144.33;100.00
19843;BME280;10082;51.038;6.992;2023-01-25T11:48:35;112171.53;;;-144.33;100.00
19843;BME280;10082;51.038;6.992;2023-01-25T11:51:14;112171.53;;;-144.33;100.00
19843;BME280;10082;51.038;6.992;2023-01-25T11:53:55;112171.53;;;-144.33;100.00
19843;BME280;10082;51.038;6.992;2023-01-25T11:56:37;112171.53;;;-144.33;100.00
19843;BME280;10082;51.038;6.992;2023-01-25T11:59:23;112171.53;;;-144.33;100.00
19843;BME280;10082;51.038;6.992;2023-01-25T12:02:11;112171.53;;;-144.33;100.00
19843;BME280;10082;51.038;6.992;2023-01-25T12:04:55;112171.53;;;-144.33;100.00
19843;BME280;10082;51.038;6.992;2023-01-25T12:07:38;112171.53;;;-144.33;100.00
19843;BME280;10082;51.038;6.992;2023-01-25T12:10:18;112171.53;;;-144.33;100.00
19843;BME280;10082;51.038;6.992;2023-01-25T12:12:53;112171.53;;;-144.33;100.00
19843;BME280;10082;51.038;6.992;2023-01-25T12:15:37;112171.53;;;-144.33;100.00
19843;BME280;10082;51.038;6.992;2023-01-25T12:18:24;112171.53;;;-144.33;100.00
19843;BME280;10082;51.038;6.992;2023-01-25T12:21:03;112171.53;;;-144.33;100.00
19843;BME280;10082;51.038;6.992;2023-01-25T12:23:35;112171.53;;;-144.33;100.00
19843;BME280;10082;51.038;6.992;2023-01-25T12:26:17;112171.53;;;-144.33;100.00
19843;BME280;10082;51.038;6.992;2023-01-25T12:28:58;112171.53;;;-144.33;100.00
19843;BME280;10082;51.038;6.992;2023-01-25T12:31:35;112171.53;;;-144.33;100.00
19843;BME280;10082;51.038;6.992;2023-01-25T12:34:09;112171.53;;;-144.33;100.00
19843;BME280;10082;51.038;6.992;2023-01-25T12:36:41;112171.53;;;-144.33;100.00
19843;BME280;10082;51.038;6.992;2023-01-25T12:39:12;112171.53;;;-144.33;100.00
19843;BME280;10082;51.038;6.992;2023-01-25T12:41:42;112171.53;;;-144.33;100.00
19843;BME280;10082;51.038;6.992;2023-01-25T12:44:17;112171.53;;;-144.33;100.00
19843;BME280;10082;51.038;6.992;2023-01-25T12:46:51;112171.53;;;-144.33;100.00
19843;BME280;10082;51.038;6.992;2023-01-25T12:49:27;112171.53;;;-144.33;100.00